Map

Track Data

SID SEASON NUMBER BASIN SUBBASIN NAME ISO_TIME NATURE LAT LON WMO_WIND WMO_PRES WMO_AGENCY TRACK_TYPE DIST2LAND LANDFALL IFLAG USA_AGENCY USA_ATCF_ID USA_LAT USA_LON USA_RECORD USA_STATUS USA_WIND USA_PRES USA_SSHS USA_R34_NE USA_R34_SE USA_R34_SW USA_R34_NW USA_R50_NE USA_R50_SE USA_R50_SW USA_R50_NW USA_R64_NE USA_R64_SE USA_R64_SW USA_R64_NW USA_POCI USA_ROCI USA_RMW USA_EYE TOKYO_LAT TOKYO_LON TOKYO_GRADE TOKYO_WIND TOKYO_PRES TOKYO_R50_DIR TOKYO_R50_LONG TOKYO_R50_SHORT TOKYO_R30_DIR TOKYO_R30_LONG TOKYO_R30_SHORT TOKYO_LAND CMA_LAT CMA_LON CMA_CAT CMA_WIND CMA_PRES HKO_LAT HKO_LON HKO_CAT HKO_WIND HKO_PRES NEWDELHI_LAT NEWDELHI_LON NEWDELHI_GRADE NEWDELHI_WIND NEWDELHI_PRES NEWDELHI_CI NEWDELHI_DP NEWDELHI_POCI REUNION_LAT REUNION_LON REUNION_TYPE REUNION_WIND REUNION_PRES REUNION_TNUM REUNION_CI REUNION_RMW REUNION_R34_NE REUNION_R34_SE REUNION_R34_SW REUNION_R34_NW REUNION_R50_NE REUNION_R50_SE REUNION_R50_SW REUNION_R50_NW REUNION_R64_NE REUNION_R64_SE REUNION_R64_SW REUNION_R64_NW BOM_LAT BOM_LON BOM_TYPE BOM_WIND BOM_PRES BOM_TNUM BOM_CI BOM_RMW BOM_R34_NE BOM_R34_SE BOM_R34_SW BOM_R34_NW BOM_R50_NE BOM_R50_SE BOM_R50_SW BOM_R50_NW BOM_R64_NE BOM_R64_SE BOM_R64_SW BOM_R64_NW BOM_ROCI BOM_POCI BOM_EYE BOM_POS_METHOD BOM_PRES_METHOD NADI_LAT NADI_LON NADI_CAT NADI_WIND NADI_PRES WELLINGTON_LAT WELLINGTON_LON WELLINGTON_WIND WELLINGTON_PRES DS824_LAT DS824_LON DS824_STAGE DS824_WIND DS824_PRES TD9636_LAT TD9636_LON TD9636_STAGE TD9636_WIND TD9636_PRES TD9635_LAT TD9635_LON TD9635_WIND TD9635_PRES TD9635_ROCI NEUMANN_LAT NEUMANN_LON NEUMANN_CLASS NEUMANN_WIND NEUMANN_PRES MLC_LAT MLC_LON MLC_CLASS MLC_WIND MLC_PRES USA_GUST BOM_GUST BOM_GUST_PER REUNION_GUST REUNION_GUST_PER USA_SEAHGT USA_SEARAD_NE USA_SEARAD_SE USA_SEARAD_SW USA_SEARAD_NW STORM_SPEED STORM_DIR
1935303N32299 1935 63 NA NA NOT_NAMED 1935-10-30 06:00:00 TS 32.3000 -60.9000 35 hurdat_atl main 1304 1281 O_____________ hurdat_atl AL071935 32.3000 -60.9000 TS 35 0 10 282
1935303N32299 1935 63 NA NA NOT_NAMED 1935-10-30 09:00:00 TS 32.4006 -61.4597 main 1278 1244 P_____________ AL071935 32.4006 -61.4597 TS 35 0 9 282
1935303N32299 1935 63 NA NA NOT_NAMED 1935-10-30 12:00:00 TS 32.5000 -62.0000 35 hurdat_atl main 1244 1210 O_____________ hurdat_atl AL071935 32.5000 -62.0000 TS 35 0 9 283
1935303N32299 1935 63 NA NA NOT_NAMED 1935-10-30 15:00:00 TS 32.5997 -62.5076 main 1210 1176 P_____________ AL071935 32.5997 -62.5076 TS 37 0 9 283
1935303N32299 1935 63 NA NA NOT_NAMED 1935-10-30 18:00:00 TS 32.7000 -63.0000 40 hurdat_atl main 1176 1144 O_____________ hurdat_atl AL071935 32.7000 -63.0000 TS 40 0 9 283
1935303N32299 1935 63 NA NA NOT_NAMED 1935-10-30 21:00:00 TS 32.7998 -63.5001 main 1144 1101 P_____________ AL071935 32.7998 -63.5001 TS 40 0 9 283
1935303N32299 1935 63 NA NA NOT_NAMED 1935-10-31 00:00:00 TS 32.9000 -64.0000 40 hurdat_atl main 1101 1053 O_____________ hurdat_atl AL071935 32.9000 -64.0000 TS 40 0 9 283
1935303N32299 1935 63 NA NA NOT_NAMED 1935-10-31 03:00:00 TS 32.9923 -64.5002 main 1053 1006 P_____________ AL071935 32.9923 -64.5002 TS 42 0 9 283
1935303N32299 1935 63 NA NA NOT_NAMED 1935-10-31 06:00:00 TS 33.1000 -65.0000 45 hurdat_atl main 1006 958 O_____________ hurdat_atl AL071935 33.1000 -65.0000 TS 45 0 9 286
1935303N32299 1935 63 NA NA NOT_NAMED 1935-10-31 09:00:00 TS 33.2347 -65.4927 main 958 907 P_____________ AL071935 33.2347 -65.4927 TS 47 0 9 290
1935303N32299 1935 63 NA NA NOT_NAMED 1935-10-31 12:00:00 TS 33.4000 -66.0000 50 hurdat_atl main 907 856 O_____________ hurdat_atl AL071935 33.4000 -66.0000 TS 50 0 9 292
1935303N32299 1935 63 NA NA NOT_NAMED 1935-10-31 15:00:00 TS 33.5924 -66.5426 main 856 796 P_____________ AL071935 33.5924 -66.5426 TS 52 0 10 294
1935303N32299 1935 63 NA NA NOT_NAMED 1935-10-31 18:00:00 TS 33.8000 -67.1000 55 hurdat_atl main 796 746 O_____________ hurdat_atl AL071935 33.8000 -67.1000 TS 55 0 10 295
1935303N32299 1935 63 NA NA NOT_NAMED 1935-10-31 21:00:00 TS 34.0148 -67.6500 main 746 686 P_____________ AL071935 34.0148 -67.6500 TS 57 0 10 294
1935303N32299 1935 63 NA NA NOT_NAMED 1935-11-01 00:00:00 TS 34.2000 -68.2000 60 hurdat_atl main 686 639 O_____________ hurdat_atl AL071935 34.2000 -68.2000 TS 60 0 10 289
1935303N32299 1935 63 NA NA NOT_NAMED 1935-11-01 03:00:00 TS 34.3221 -68.7428 main 639 583 P_____________ AL071935 34.3221 -68.7428 TS 60 0 9 282
1935303N32299 1935 63 NA NA NOT_NAMED 1935-11-01 06:00:00 TS 34.4000 -69.3000 60 hurdat_atl main 583 536 O_____________ hurdat_atl AL071935 34.4000 -69.3000 TS 60 0 9 280
1935303N32299 1935 63 NA NA NOT_NAMED 1935-11-01 09:00:00 TS 34.4796 -69.8772 main 528 476 P_____________ AL071935 34.4796 -69.8772 TS 62 0 10 276
1935303N32299 1935 63 NA NA NOT_NAMED 1935-11-01 12:00:00 TS 34.5000 -70.5000 65 hurdat_atl main 476 428 O_____________ hurdat_atl AL071935 34.5000 -70.5000 HU 65 1 11 267
1935303N32299 1935 63 NA NA NOT_NAMED 1935-11-01 15:00:00 TS 34.4296 -71.1702 main 420 367 P_____________ AL071935 34.4296 -71.1702 HU 67 1 12 260
1935303N32299 1935 63 NA NA NOT_NAMED 1935-11-01 18:00:00 TS 34.3000 -71.9000 70 hurdat_atl main 367 310 O_____________ hurdat_atl AL071935 34.3000 -71.9000 HU 70 1 13 258
1935303N32299 1935 63 NA NA NOT_NAMED 1935-11-01 21:00:00 TS 34.1653 -72.7150 main 310 268 P_____________ AL071935 34.1653 -72.7150 HU 70 1 14 257
1935303N32299 1935 63 NA NA NOT_NAMED 1935-11-02 00:00:00 TS 34.0000 -73.5000 70 hurdat_atl main 268 230 O_____________ hurdat_atl AL071935 34.0000 -73.5000 HU 70 1 12 254
1935303N32299 1935 63 NA NA NOT_NAMED 1935-11-02 03:00:00 TS 33.8221 -74.1597 main 228 205 P_____________ AL071935 33.8221 -74.1597 HU 72 1 11 248
1935303N32299 1935 63 NA NA NOT_NAMED 1935-11-02 06:00:00 TS 33.6000 -74.7000 75 980 hurdat_atl main 205 192 O_____________ hurdat_atl AL071935 33.6000 -74.7000 HU 75 980 1 10 240
1935303N32299 1935 63 NA NA NOT_NAMED 1935-11-02 09:00:00 TS 33.3448 -75.1597 main 196 191 P_____________ AL071935 33.3448 -75.1597 HU 75 1 9 228
1935303N32299 1935 63 NA NA NOT_NAMED 1935-11-02 12:00:00 TS 33.0000 -75.5000 75 hurdat_atl main 210 210 O_____________ hurdat_atl AL071935 33.0000 -75.5000 HU 75 1 9 212
1935303N32299 1935 63 NA NA NOT_NAMED 1935-11-02 15:00:00 TS 32.5448 -75.7525 main 253 253 P_____________ AL071935 32.5448 -75.7525 HU 77 1 11 199
1935303N32299 1935 63 NA NA NOT_NAMED 1935-11-02 18:00:00 TS 32.0000 -75.9000 80 hurdat_atl main 288 288 O_____________ hurdat_atl AL071935 32.0000 -75.9000 HU 80 1 11 189
1935303N32299 1935 63 NA NA NOT_NAMED 1935-11-02 21:00:00 TS 31.4299 -75.9721 main 335 335 P_____________ AL071935 31.4299 -75.9721 HU 82 1 12 184
1935303N32299 1935 63 NA NA NOT_NAMED 1935-11-03 00:00:00 TS 30.8000 -76.0000 85 hurdat_atl main 393 393 O_____________ hurdat_atl AL071935 30.8000 -76.0000 HU 85 2 13 182
1935303N32299 1935 63 NA NA NOT_NAMED 1935-11-03 03:00:00 TS 30.1000 -76.0423 main 456 439 P_____________ AL071935 30.1000 -76.0423 HU 87 2 14 184
1935303N32299 1935 63 NA NA NOT_NAMED 1935-11-03 06:00:00 TS 29.4000 -76.1000 90 hurdat_atl main 439 420 O_____________ hurdat_atl AL071935 29.4000 -76.1000 HU 90 2 14 185
1935303N32299 1935 63 NA NA NOT_NAMED 1935-11-03 09:00:00 TS 28.7550 -76.1774 main 420 385 P_____________ AL071935 28.7550 -76.1774 HU 90 2 12 188
1935303N32299 1935 63 NA NA NOT_NAMED 1935-11-03 12:00:00 TS 28.2000 -76.3000 90 964 hurdat_atl main 385 336 O_____________ hurdat_atl AL071935 28.2000 -76.3000 HU 90 964 2 10 194
1935303N32299 1935 63 NA NA NOT_NAMED 1935-11-03 15:00:00 TS 27.7475 -76.4699 main 326 287 P_____________ AL071935 27.7475 -76.4699 HU 90 2 9 204
1935303N32299 1935 63 NA NA NOT_NAMED 1935-11-03 18:00:00 TS 27.4000 -76.7000 90 hurdat_atl main 287 244 O_____________ hurdat_atl AL071935 27.4000 -76.7000 HU 90 2 8 216
1935303N32299 1935 63 NA NA NOT_NAMED 1935-11-03 21:00:00 TS 27.1200 -76.9773 main 244 212 P_____________ AL071935 27.1200 -76.9773 HU 90 2 7 227
1935303N32299 1935 63 NA NA NOT_NAMED 1935-11-04 00:00:00 TS 26.9000 -77.3000 90 hurdat_atl main 212 183 O_____________ hurdat_atl AL071935 26.9000 -77.3000 HU 90 2 7 233
1935303N32299 1935 63 NA NA NOT_NAMED 1935-11-04 03:00:00 TS 26.6848 -77.6274 main 183 156 P_____________ AL071935 26.6848 -77.6274 HU 87 2 7 237
1935303N32299 1935 63 NA NA NOT_NAMED 1935-11-04 06:00:00 TS 26.5000 -78.0000 85 hurdat_atl main 156 145 O_____________ hurdat_atl AL071935 26.5000 -78.0000 HU 85 2 8 244
1935303N32299 1935 63 NA NA NOT_NAMED 1935-11-04 09:00:00 TS 26.3422 -78.4123 main 137 119 P_____________ AL071935 26.3422 -78.4123 HU 85 2 9 250
1935303N32299 1935 63 NA NA NOT_NAMED 1935-11-04 12:00:00 TS 26.2000 -78.9000 85 hurdat_atl main 119 69 O_____________ hurdat_atl AL071935 26.2000 -78.9000 HU 85 2 10 253
1935303N32299 1935 63 NA NA NOT_NAMED 1935-11-04 15:00:00 TS 26.0425 -79.4776 main 59 0 P_____________ AL071935 26.0425 -79.4776 HU 85 2 11 254
1935303N32299 1935 63 NA NA NOT_NAMED 1935-11-04 18:00:00 TS 25.9000 -80.1000 85 973 hurdat_atl main 0 0 O_____________ hurdat_atl AL071935 25.9000 -80.1000 L HU 85 973 2 11 257
1935303N32299 1935 63 NA NA NOT_NAMED 1935-11-04 21:00:00 TS 25.7850 -80.7224 main 0 0 P_____________ AL071935 25.7850 -80.7224 HU 77 1 11 260
1935303N32299 1935 63 NA GM NOT_NAMED 1935-11-05 00:00:00 TS 25.7000 -81.3000 70 hurdat_atl main 0 0 O_____________ hurdat_atl AL071935 25.7000 -81.3000 HU 70 1 10 261
1935303N32299 1935 63 NA GM NOT_NAMED 1935-11-05 03:00:00 TS 25.6422 -81.7798 main 34 34 P_____________ AL071935 25.6422 -81.7798 HU 67 1 8 263
1935303N32299 1935 63 NA GM NOT_NAMED 1935-11-05 06:00:00 TS 25.6000 -82.2000 65 hurdat_atl main 60 60 O_____________ hurdat_atl AL071935 25.6000 -82.2000 HU 65 1 8 262
1935303N32299 1935 63 NA GM NOT_NAMED 1935-11-05 09:00:00 TS 25.5348 -82.6076 main 100 100 P_____________ AL071935 25.5348 -82.6076 HU 65 1 7 262
1935303N32299 1935 63 NA GM NOT_NAMED 1935-11-05 12:00:00 TS 25.5000 -83.0000 65 hurdat_atl main 137 137 O_____________ hurdat_atl AL071935 25.5000 -83.0000 HU 65 1 7 269
1935303N32299 1935 63 NA GM NOT_NAMED 1935-11-05 15:00:00 TS 25.5199 -83.4000 main 173 173 P_____________ AL071935 25.5199 -83.4000 HU 65 1 7 278
1935303N32299 1935 63 NA GM NOT_NAMED 1935-11-05 18:00:00 TS 25.6000 -83.8000 65 hurdat_atl main 200 200 O_____________ hurdat_atl AL071935 25.6000 -83.8000 HU 65 1 8 287
1935303N32299 1935 63 NA GM NOT_NAMED 1935-11-05 21:00:00 TS 25.7349 -84.2000 main 225 219 P_____________ AL071935 25.7349 -84.2000 HU 62 0 8 293
1935303N32299 1935 63 NA GM NOT_NAMED 1935-11-06 00:00:00 TS 25.9000 -84.6000 60 hurdat_atl main 250 250 O_____________ hurdat_atl AL071935 25.9000 -84.6000 TS 60 0 8 293
1935303N32299 1935 63 NA GM NOT_NAMED 1935-11-06 03:00:00 TS 26.0499 -85.0076 main 279 273 P_____________ AL071935 26.0499 -85.0076 TS 57 0 8 293
1935303N32299 1935 63 NA GM NOT_NAMED 1935-11-06 06:00:00 TS 26.2000 -85.4000 55 hurdat_atl main 303 303 O_____________ hurdat_atl AL071935 26.2000 -85.4000 TS 55 0 7 294
1935303N32299 1935 63 NA GM NOT_NAMED 1935-11-06 09:00:00 TS 26.3499 -85.7651 main 336 331 P_____________ AL071935 26.3499 -85.7651 TS 52 0 7 296
1935303N32299 1935 63 NA GM NOT_NAMED 1935-11-06 12:00:00 TS 26.5000 -86.1000 50 hurdat_atl main 352 352 O_____________ hurdat_atl AL071935 26.5000 -86.1000 TS 50 0 7 297
1935303N32299 1935 63 NA GM NOT_NAMED 1935-11-06 15:00:00 TS 26.6500 -86.4300 main 348 340 P_____________ AL071935 26.6500 -86.4300 TS 47 0 6 299
1935303N32299 1935 63 NA GM NOT_NAMED 1935-11-06 18:00:00 TS 26.8000 -86.7000 45 hurdat_atl main 340 318 O_____________ hurdat_atl AL071935 26.8000 -86.7000 TS 45 0 5 307
1935303N32299 1935 63 NA GM NOT_NAMED 1935-11-06 21:00:00 TS 26.9574 -86.8801 main 310 295 P_____________ AL071935 26.9574 -86.8801 TS 42 0 4 318
1935303N32299 1935 63 NA GM NOT_NAMED 1935-11-07 00:00:00 TS 27.1000 -87.0000 40 hurdat_atl main 295 280 O_____________ hurdat_atl AL071935 27.1000 -87.0000 TS 40 0 3 319
1935303N32299 1935 63 NA GM NOT_NAMED 1935-11-07 03:00:00 TS 27.2075 -87.1225 main 280 265 P_____________ AL071935 27.2075 -87.1225 TS 37 0 3 318
1935303N32299 1935 63 NA GM NOT_NAMED 1935-11-07 06:00:00 TS 27.3000 -87.2000 35 hurdat_atl main 265 257 O_____________ hurdat_atl AL071935 27.3000 -87.2000 TS 35 0 2 332
1935303N32299 1935 63 NA GM NOT_NAMED 1935-11-07 09:00:00 TS 27.4075 -87.2375 main 257 250 P_____________ AL071935 27.4075 -87.2375 TS 35 0 2 8
1935303N32299 1935 63 NA GM NOT_NAMED 1935-11-07 12:00:00 TS 27.5000 -87.2000 35 hurdat_atl main 250 250 O_____________ hurdat_atl AL071935 27.5000 -87.2000 TS 35 0 2 40
1935303N32299 1935 63 NA GM NOT_NAMED 1935-11-07 15:00:00 TS 27.5650 -87.0875 main 250 250 P_____________ AL071935 27.5650 -87.0875 TS 32 -1 3 69
1935303N32299 1935 63 NA GM NOT_NAMED 1935-11-07 18:00:00 TS 27.6000 -86.9000 30 hurdat_atl main 264 264 O_____________ hurdat_atl AL071935 27.6000 -86.9000 TD 30 -1 4 83
1935303N32299 1935 63 NA GM NOT_NAMED 1935-11-07 21:00:00 TS 27.6074 -86.6800 main 266 253 P_____________ AL071935 27.6074 -86.6800 TD 30 -1 4 90
1935303N32299 1935 63 NA GM NOT_NAMED 1935-11-08 00:00:00 TS 27.6000 -86.4000 30 hurdat_atl main 253 244 O_____________ hurdat_atl AL071935 27.6000 -86.4000 TD 30 -1 5 91
1935303N32299 1935 63 NA GM NOT_NAMED 1935-11-08 03:00:00 TS 27.6000 -86.0650 main 244 236 P_____________ AL071935 27.6000 -86.0650 TD 27 -1 6 90
1935303N32299 1935 63 NA GM NOT_NAMED 1935-11-08 06:00:00 TS 27.6000 -85.7000 25 hurdat_atl main 236 234 O_____________ hurdat_atl AL071935 27.6000 -85.7000 TD 25 -1 6 90
1935303N32299 1935 63 NA GM NOT_NAMED 1935-11-08 09:00:00 TS 27.5999 -85.3500 main 234 209 P_____________ AL071935 27.5999 -85.3500 TD 25 -1 6 90
1935303N32299 1935 63 NA GM NOT_NAMED 1935-11-08 12:00:00 ET 27.6000 -85.0000 25 hurdat_atl main 209 180 O_____________ hurdat_atl AL071935 27.6000 -85.0000 EX 25 -4 6 90
1935303N32299 1935 63 NA GM NOT_NAMED 1935-11-08 15:00:00 ET 27.6002 -84.6500 main 170 141 P_____________ AL071935 27.6002 -84.6500 EX 22 -4 6 90
1935303N32299 1935 63 NA GM NOT_NAMED 1935-11-08 18:00:00 ET 27.6000 -84.3000 20 hurdat_atl main 141 O_____________ hurdat_atl AL071935 27.6000 -84.3000 EX 20 -4 6 90

About IBTrACS Database

This database is a web-friendly format of International Best Track Archive for Climate Stewardship (IBTrACS), a global best track data archive curated by NOAA dating back to 1842.

Updated: 2021-10-19